Time;durP1;ratioP1;P1;durP2;ratioP2;P2;SDS_P1;SDS_P2;PMS_P1;PMS_P2;Temp;Humidity;BMP_temperature;BMP_pressure;BME280_temperature;BME280_humidity;BME280_pressure;Samples;Min_cycle;Max_cycle;Signal;HPM_P1;HPM_P2
2021/08/04 00:02:13;;;;;;;6.10;5.50;;;;;;;18.36;57.28;101017.31;5060689;28;20170;-71
2021/08/04 00:04:39;;;;;;;4.30;3.90;;;;;;;18.18;57.51;101018.50;5060807;28;20284;-72
2021/08/04 00:07:04;;;;;;;5.20;4.27;;;;;;;17.91;58.41;101019.81;5061826;28;20182;-72
2021/08/04 00:09:29;;;;;;;7.40;6.27;;;;;;;18.23;57.76;101021.94;5063506;28;20177;-71
2021/08/04 00:11:55;;;;;;;6.57;5.33;;;;;;;18.36;57.48;101022.59;5060917;28;20404;-72
2021/08/04 00:14:20;;;;;;;7.53;6.80;;;;;;;18.46;56.93;101028.56;5060471;28;20610;-71
2021/08/04 00:16:45;;;;;;;4.17;3.77;;;;;;;18.12;57.69;101024.75;5061766;28;20574;-72
2021/08/04 00:19:11;;;;;;;5.03;4.53;;;;;;;18.18;58.13;101019.38;5060173;28;20181;-72
2021/08/04 00:21:36;;;;;;;5.57;4.67;;;;;;;17.96;58.44;101018.88;5060338;28;20186;-72
2021/08/04 00:24:01;;;;;;;5.03;4.40;;;;;;;18.48;57.01;101008.28;5061174;28;20656;-74
2021/08/04 00:26:27;;;;;;;8.83;5.67;;;;;;;18.37;57.11;101018.19;5060704;28;20181;-72
2021/08/04 00:28:52;;;;;;;4.40;4.00;;;;;;;17.42;59.98;101019.66;5059474;28;20178;-72
2021/08/04 00:31:18;;;;;;;10.37;9.30;;;;;;;18.08;58.81;101017.78;5071485;28;20185;-72
2021/08/04 00:33:43;;;;;;;8.53;7.20;;;;;;;18.33;57.84;101018.25;5072945;28;20200;-72
2021/08/04 00:36:08;;;;;;;4.60;4.20;;;;;;;18.15;58.24;101014.16;5060265;28;20189;-71
2021/08/04 00:38:33;;;;;;;5.20;4.40;;;;;;;17.88;59.10;101014.59;5059965;28;20197;-72
2021/08/04 00:40:59;;;;;;;4.70;4.20;;;;;;;17.89;59.07;101024.22;5060394;28;20177;-72
2021/08/04 00:43:24;;;;;;;4.70;4.30;;;;;;;17.86;59.39;101022.53;5061309;28;20181;-72
2021/08/04 00:45:49;;;;;;;4.60;4.20;;;;;;;17.66;59.90;101028.13;5059873;28;20248;-71
2021/08/04 00:48:16;;;;;;;5.30;4.80;;;;;;;18.03;59.48;101026.69;5060198;28;20223;-72
2021/08/04 00:50:41;;;;;;;5.77;4.70;;;;;;;18.11;59.08;101028.28;5073767;28;20192;-72
2021/08/04 00:53:23;;;;;;;9.73;6.97;;;;;;;18.22;58.55;101024.59;5077228;28;20427;-73
2021/08/04 00:55:49;;;;;;;8.93;6.93;;;;;;;18.43;57.95;101018.03;5059645;28;20176;-71
2021/08/04 00:58:15;;;;;;;5.20;4.70;;;;;;;18.34;58.45;101019.97;5059181;28;20407;-71
2021/08/04 01:00:42;;;;;;;6.57;4.97;;;;;;;18.19;58.96;101022.88;5059295;28;20696;-71
2021/08/04 01:03:08;;;;;;;4.53;4.13;;;;;;;18.15;59.04;101021.19;5059326;28;20172;-72
2021/08/04 01:05:42;;;;;;;5.00;4.10;;;;;;;17.81;60.22;101014.69;5061272;28;20479;-70
2021/08/04 01:08:13;;;;;;;4.73;4.23;;;;;;;17.60;60.86;101018.53;5058668;28;20427;-71
2021/08/04 01:10:50;;;;;;;9.40;7.70;;;;;;;17.84;60.10;101021.69;5074302;28;20443;-71
2021/08/04 01:13:21;;;;;;;5.73;4.80;;;;;;;18.40;58.63;101026.94;5077531;28;20446;-71
2021/08/04 01:15:55;;;;;;;5.40;4.60;;;;;;;18.34;58.92;101025.25;5060967;28;20409;-72
2021/08/04 01:18:23;;;;;;;6.73;4.87;;;;;;;17.93;59.86;101029.47;5058660;28;20436;-70
2021/08/04 01:20:49;;;;;;;4.90;3.90;;;;;;;17.80;60.20;101027.91;5058243;28;20534;-70
2021/08/04 01:23:32;;;;;;;5.50;4.23;;;;;;;17.91;60.07;101033.00;5058679;28;20499;-71
2021/08/04 01:26:11;;;;;;;4.60;4.20;;;;;;;17.85;60.22;101029.56;5073801;28;20478;-71
2021/08/04 01:28:45;;;;;;;5.07;4.67;;;;;;;17.75;60.63;101035.88;5074757;28;20518;-71
2021/08/04 01:31:14;;;;;;;5.03;4.53;;;;;;;17.83;60.71;101030.47;5077145;28;20503;-72
2021/08/04 01:33:42;;;;;;;7.30;5.97;;;;;;;17.99;60.04;101039.06;5077980;28;20649;-72
2021/08/04 01:36:08;;;;;;;4.60;4.20;;;;;;;17.81;60.67;101037.56;5061976;28;20553;-71
2021/08/04 01:38:34;;;;;;;5.07;4.37;;;;;;;17.70;61.11;101035.09;5072416;28;20426;-71
2021/08/04 01:41:01;;;;;;;4.87;4.47;;;;;;;18.00;60.24;101031.09;5071757;28;20432;-72
2021/08/04 01:43:26;;;;;;;6.53;5.90;;;;;;;17.82;60.82;101034.03;5077995;28;20449;-71
2021/08/04 01:45:54;;;;;;;6.20;5.40;;;;;;;17.77;60.72;101042.00;5065177;28;20472;-71
2021/08/04 01:48:20;;;;;;;5.33;4.83;;;;;;;17.49;61.77;101045.06;5068884;28;20256;-71
2021/08/04 01:50:46;;;;;;;5.67;5.17;;;;;;;17.36;61.94;101043.47;5070444;28;20479;-71
2021/08/04 01:53:11;;;;;;;4.77;4.37;;;;;;;17.22;62.35;101037.53;5058087;28;20416;-72
2021/08/04 01:55:37;;;;;;;5.90;5.30;;;;;;;17.49;61.67;101034.50;5058147;28;20201;-71
2021/08/04 01:58:02;;;;;;;5.13;4.63;;;;;;;17.39;61.89;101032.88;5065129;28;20193;-72
2021/08/04 02:00:28;;;;;;;4.67;4.20;;;;;;;17.36;62.07;101032.94;5077859;28;20437;-71
2021/08/04 02:02:53;;;;;;;5.90;4.47;;;;;;;17.09;62.59;101029.78;5058513;28;20230;-72
2021/08/04 02:05:18;;;;;;;7.90;4.73;;;;;;;17.23;62.47;101029.59;5059240;28;20204;-71
2021/08/04 02:08:09;;;;;;;4.60;4.20;;;;;;;17.26;62.47;101026.03;5059836;28;20189;-71
2021/08/04 02:10:54;;;;;;;5.93;5.00;;;;;;;17.28;62.70;101032.19;5058417;28;20230;-71
2021/08/04 02:13:26;;;;;;;4.93;4.43;;;;;;;17.32;62.19;101032.09;5057524;28;20416;-71
2021/08/04 02:15:55;;;;;;;5.00;4.60;;;;;;;17.36;61.89;101029.41;5058781;28;20443;-71
2021/08/04 02:18:24;;;;;;;6.37;5.23;;;;;;;17.05;63.11;101027.19;5077011;28;20520;-71
2021/08/04 02:20:50;;;;;;;5.20;4.70;;;;;;;17.54;61.91;101020.41;5076235;28;20824;-71
2021/08/04 02:23:25;;;;;;;4.63;4.23;;;;;;;17.44;62.01;101020.53;5057118;28;20442;-72
2021/08/04 02:25:54;;;;;;;5.17;4.70;;;;;;;16.97;63.88;101019.41;5061814;28;20303;-72
2021/08/04 02:28:23;;;;;;;7.03;5.33;;;;;;;17.12;62.95;101021.81;5057338;28;20425;-71
2021/08/04 02:30:49;;;;;;;5.30;4.90;;;;;;;17.21;63.10;101018.22;5058098;28;20391;-72
2021/08/04 02:33:15;;;;;;;4.70;4.30;;;;;;;17.23;63.07;101018.19;5057489;28;20542;-71
2021/08/04 02:35:40;;;;;;;5.33;4.83;;;;;;;17.14;63.12;101020.06;5057941;28;20497;-71
2021/08/04 02:38:05;;;;;;;4.87;4.47;;;;;;;16.79;64.17;101021.34;5058817;28;20464;-71
2021/08/04 02:40:31;;;;;;;6.37;4.87;;;;;;;17.14;63.36;101012.16;5070567;28;20324;-71
2021/08/04 02:42:58;;;;;;;6.93;6.23;;;;;;;17.13;63.13;101015.66;5073207;28;20200;-72
2021/08/04 02:45:24;;;;;;;8.03;5.00;;;;;;;16.91;64.13;101025.59;5057436;28;20205;-71
2021/08/04 02:47:50;;;;;;;5.80;5.00;;;;;;;17.04;63.58;101021.06;5072344;28;20489;-72
2021/08/04 02:50:16;;;;;;;7.97;5.13;;;;;;;16.88;63.92;101019.47;5077401;28;20321;-72
2021/08/04 02:52:42;;;;;;;7.73;5.20;;;;;;;16.68;65.08;101023.19;5077515;28;20437;-71
2021/08/04 02:55:08;;;;;;;7.10;5.67;;;;;;;17.07;63.58;101012.25;5082182;28;20393;-71
2021/08/04 02:57:34;;;;;;;6.63;5.40;;;;;;;17.04;63.39;101010.53;5066836;28;20286;-71
2021/08/04 02:59:59;;;;;;;6.60;5.27;;;;;;;17.22;63.16;101019.94;5062064;28;20450;-72
2021/08/04 03:02:24;;;;;;;6.83;6.23;;;;;;;17.36;63.24;101014.50;5070811;28;20227;-71
2021/08/04 03:04:51;;;;;;;6.47;4.90;;;;;;;17.08;63.67;101011.38;5080134;28;20267;-72
2021/08/04 03:07:16;;;;;;;5.27;4.83;;;;;;;17.13;63.64;101014.78;5069375;28;20502;-72
2021/08/04 03:09:41;;;;;;;6.03;4.97;;;;;;;16.96;63.92;101022.91;5062441;28;20466;-71
2021/08/04 03:12:07;;;;;;;5.87;5.30;;;;;;;16.93;63.88;101015.91;5061402;28;20200;-71
2021/08/04 03:14:32;;;;;;;4.90;4.50;;;;;;;16.80;64.63;101023.06;5061826;28;20173;-71
2021/08/04 03:16:58;;;;;;;5.50;5.00;;;;;;;16.88;64.94;101019.47;5063320;28;20212;-71
2021/08/04 03:19:23;;;;;;;5.93;5.43;;;;;;;17.40;63.13;101023.22;5062049;28;20264;-72
2021/08/04 03:21:48;;;;;;;6.13;5.60;;;;;;;17.06;63.75;101021.94;5075867;28;20242;-71
2021/08/04 03:24:14;;;;;;;5.70;5.20;;;;;;;17.07;64.14;101018.38;5061450;28;20506;-71
2021/08/04 03:26:39;;;;;;;5.50;5.07;;;;;;;17.10;63.88;101017.47;5062830;28;20304;-71
2021/08/04 03:29:04;;;;;;;7.40;5.57;;;;;;;17.12;63.68;101020.97;5062088;28;20191;-71
2021/08/04 03:31:30;;;;;;;6.03;5.47;;;;;;;16.99;64.49;101022.88;5061280;28;20249;-72
2021/08/04 03:33:55;;;;;;;6.10;5.50;;;;;;;16.92;64.62;101029.97;5062798;28;20510;-71
2021/08/04 03:36:20;;;;;;;6.10;5.50;;;;;;;16.72;65.20;101029.31;5064020;28;20256;-70
2021/08/04 03:38:46;;;;;;;5.90;5.40;;;;;;;16.59;65.87;101029.44;5081635;28;20531;-71
2021/08/04 03:41:11;;;;;;;5.60;5.00;;;;;;;16.75;65.42;101030.16;5081256;28;20181;-71
2021/08/04 03:43:36;;;;;;;6.13;5.53;;;;;;;16.89;64.92;101029.13;5065057;28;20185;-71
2021/08/04 03:46:02;;;;;;;6.17;5.57;;;;;;;16.65;65.70;101031.13;5061521;28;20232;-71
2021/08/04 03:48:27;;;;;;;5.67;5.17;;;;;;;16.72;65.74;101032.78;5061953;28;20197;-71
2021/08/04 03:50:52;;;;;;;6.30;5.70;;;;;;;16.63;65.29;101031.16;5061806;28;20193;-71
2021/08/04 03:53:18;;;;;;;5.57;5.07;;;;;;;17.09;64.23;101027.13;5061815;28;20209;-71
2021/08/04 03:55:43;;;;;;;8.03;5.60;;;;;;;16.90;64.97;101030.88;5061677;28;20180;-71
2021/08/04 03:58:09;;;;;;;6.23;5.70;;;;;;;16.97;64.65;101036.06;5062612;28;20182;-71
2021/08/04 04:00:34;;;;;;;6.27;5.53;;;;;;;16.83;64.92;101032.69;5061131;28;20422;-73
2021/08/04 04:03:00;;;;;;;7.30;6.03;;;;;;;16.33;66.55;101034.97;5062206;28;20201;-71
2021/08/04 04:05:25;;;;;;;7.10;6.40;;;;;;;16.95;64.72;101036.97;5070897;28;20188;-71
2021/08/04 04:07:51;;;;;;;6.90;6.30;;;;;;;16.86;65.34;101034.41;5077530;28;20417;-72
2021/08/04 04:10:16;;;;;;;7.10;6.40;;;;;;;16.50;66.55;101034.81;5080758;28;20176;-73
2021/08/04 04:12:41;;;;;;;6.60;6.00;;;;;;;16.86;65.21;101037.94;5069543;28;20495;-72
2021/08/04 04:15:07;;;;;;;6.60;5.90;;;;;;;17.08;64.52;101038.56;5060778;28;20173;-72
2021/08/04 04:17:32;;;;;;;6.67;5.80;;;;;;;17.16;64.55;101031.44;5067715;28;20477;-72
2021/08/04 04:19:58;;;;;;;7.40;6.10;;;;;;;17.13;64.23;101031.47;5061040;28;20168;-72
2021/08/04 04:22:23;;;;;;;6.50;5.90;;;;;;;17.17;64.47;101033.19;5061282;28;20313;-72
2021/08/04 04:24:49;;;;;;;9.13;6.27;;;;;;;17.03;65.00;101039.53;5059340;28;20366;-72
2021/08/04 04:27:14;;;;;;;6.47;5.87;;;;;;;16.73;66.07;101041.59;5062027;28;20174;-72
2021/08/04 04:29:40;;;;;;;6.47;5.87;;;;;;;16.63;66.36;101054.00;5060629;28;20169;-71
2021/08/04 04:32:07;;;;;;;8.87;6.10;;;;;;;16.99;65.12;101044.84;5074525;28;20504;-72
2021/08/04 04:34:32;;;;;;;6.23;5.63;;;;;;;16.84;65.57;101048.50;5080252;28;20223;-72
2021/08/04 04:36:57;;;;;;;6.73;6.03;;;;;;;17.09;65.22;101042.94;5070555;28;20436;-72
2021/08/04 04:39:23;;;;;;;11.00;5.43;;;;;;;17.17;64.26;101051.63;5061929;28;20177;-71
2021/08/04 04:41:48;;;;;;;8.03;5.97;;;;;;;16.50;66.62;101042.69;5069485;28;20173;-72
2021/08/04 04:44:13;;;;;;;6.83;6.13;;;;;;;16.92;65.57;101053.66;5079834;28;20193;-71
2021/08/04 04:46:39;;;;;;;6.73;5.90;;;;;;;16.69;66.35;101046.00;5066543;28;20469;-71
2021/08/04 04:49:04;;;;;;;6.20;5.60;;;;;;;17.06;65.15;101053.53;5060660;28;20250;-72
2021/08/04 04:51:29;;;;;;;6.03;5.53;;;;;;;17.17;64.45;101059.53;5058392;28;20193;-72
2021/08/04 04:53:55;;;;;;;6.87;6.27;;;;;;;17.15;64.58;101056.03;5059603;28;20227;-73
2021/08/04 04:56:20;;;;;;;6.27;5.63;;;;;;;17.40;63.90;101058.38;5064074;28;20165;-72
2021/08/04 04:58:46;;;;;;;5.73;4.93;;;;;;;16.98;64.86;101064.16;5064340;28;20304;-71
2021/08/04 05:01:11;;;;;;;6.07;5.57;;;;;;;17.12;64.84;101061.34;5077023;28;20184;-71
2021/08/04 05:03:36;;;;;;;7.60;5.77;;;;;;;16.94;65.30;101065.06;5076084;28;20531;-71
2021/08/04 05:06:02;;;;;;;6.80;6.20;;;;;;;17.49;63.67;101060.88;5059259;28;20282;-72
2021/08/04 05:08:27;;;;;;;6.10;5.60;;;;;;;17.54;63.33;101058.16;5059059;28;20239;-72
2021/08/04 05:10:52;;;;;;;6.03;5.47;;;;;;;17.13;65.23;101063.09;5059165;28;20216;-71
2021/08/04 05:13:17;;;;;;;5.40;5.00;;;;;;;17.42;64.51;101064.47;5061005;28;20181;-72
2021/08/04 05:15:43;;;;;;;7.60;5.73;;;;;;;17.52;63.89;101070.47;5059025;28;20555;-71
2021/08/04 05:18:08;;;;;;;6.53;5.30;;;;;;;17.62;63.42;101071.25;5059758;28;20197;-72
2021/08/04 05:20:34;;;;;;;5.57;5.07;;;;;;;17.66;63.18;101068.53;5059374;28;20439;-72
2021/08/04 05:22:59;;;;;;;5.57;4.97;;;;;;;17.88;62.78;101064.72;5062356;28;20255;-72
2021/08/04 05:25:25;;;;;;;5.10;4.70;;;;;;;17.74;63.07;101064.91;5079765;28;20224;-72
2021/08/04 05:27:51;;;;;;;5.70;5.23;;;;;;;17.87;62.65;101076.16;5076791;28;20192;-72
2021/08/04 05:30:16;;;;;;;5.17;4.77;;;;;;;17.92;62.77;101075.22;5059359;28;20424;-72
2021/08/04 05:32:42;;;;;;;7.07;4.90;;;;;;;18.37;61.64;101071.81;5067238;28;20211;-72
2021/08/04 05:35:08;;;;;;;5.27;4.77;;;;;;;18.12;62.25;101069.63;5068210;28;20181;-72
2021/08/04 05:37:33;;;;;;;6.23;5.00;;;;;;;18.33;61.17;101080.69;5059161;28;20575;-72
2021/08/04 05:39:58;;;;;;;7.40;5.20;;;;;;;17.75;63.34;101083.34;5061167;28;20531;-71
2021/08/04 05:42:23;;;;;;;4.90;4.17;;;;;;;17.99;62.50;101078.63;5062309;28;20220;-72
2021/08/04 05:44:49;;;;;;;5.33;4.83;;;;;;;18.14;62.29;101078.38;5058723;28;20197;-72
2021/08/04 05:47:16;;;;;;;5.57;4.93;;;;;;;18.30;61.54;101086.91;5059290;28;20245;-71
2021/08/04 05:49:41;;;;;;;6.17;5.27;;;;;;;18.30;61.65;101075.47;5058445;28;20165;-71
2021/08/04 05:52:06;;;;;;;5.73;4.20;;;;;;;18.36;61.61;101080.66;5073355;28;20430;-72
2021/08/04 05:54:32;;;;;;;4.70;4.30;;;;;;;18.31;61.54;101071.94;5077934;28;20191;-71
2021/08/04 05:56:57;;;;;;;4.50;4.10;;;;;;;18.32;61.16;101071.03;5078994;28;20169;-71
2021/08/04 05:59:22;;;;;;;4.80;4.30;;;;;;;18.55;60.81;101070.66;5076228;28;20297;-72
2021/08/04 06:01:47;;;;;;;4.73;4.30;;;;;;;18.21;61.78;101071.22;5064982;28;20531;-72
2021/08/04 06:04:13;;;;;;;5.10;4.60;;;;;;;19.11;59.12;101067.81;5077710;28;20215;-71
2021/08/04 06:06:38;;;;;;;5.67;4.57;;;;;;;18.88;60.21;101072.69;5066036;28;20185;-71
2021/08/04 06:09:03;;;;;;;9.53;7.33;;;;;;;18.87;59.96;101076.22;5058908;28;20208;-71
2021/08/04 06:11:29;;;;;;;5.73;5.20;;;;;;;18.92;59.81;101080.53;5058921;28;20178;-70
2021/08/04 06:13:54;;;;;;;4.53;4.03;;;;;;;18.94;59.23;101080.50;5073508;28;20189;-71
2021/08/04 06:16:20;;;;;;;4.57;4.17;;;;;;;18.51;60.30;101075.09;5083029;28;20172;-72
2021/08/04 06:18:45;;;;;;;6.87;4.70;;;;;;;18.56;60.52;101085.56;5084534;28;20547;-71
2021/08/04 06:21:10;;;;;;;5.80;3.97;;;;;;;18.57;60.27;101083.81;5076758;28;20192;-72
2021/08/04 06:23:35;;;;;;;4.70;4.30;;;;;;;18.69;59.76;101084.44;5078025;28;20256;-72
2021/08/04 06:26:01;;;;;;;5.33;4.83;;;;;;;19.08;58.70;101082.84;5078170;28;20200;-71
2021/08/04 06:28:26;;;;;;;4.57;4.17;;;;;;;19.37;57.60;101086.69;5077767;28;20554;-72
2021/08/04 06:30:52;;;;;;;4.30;3.90;;;;;;;18.77;59.43;101086.94;5067439;28;20187;-71
2021/08/04 06:33:17;;;;;;;5.93;4.30;;;;;;;18.49;60.71;101087.44;5073383;28;20199;-71
2021/08/04 06:35:42;;;;;;;4.50;4.10;;;;;;;19.15;58.75;101087.13;5078966;28;20480;-72
2021/08/04 06:38:08;;;;;;;4.53;4.10;;;;;;;18.94;59.25;101084.03;5078101;28;20173;-71
2021/08/04 06:40:33;;;;;;;4.17;3.77;;;;;;;18.67;59.97;101088.91;5069501;28;20460;-74
2021/08/04 06:42:58;;;;;;;4.17;3.77;;;;;;;18.96;59.42;101092.78;5059326;28;20165;-74
2021/08/04 06:45:24;;;;;;;4.77;3.97;;;;;;;19.53;57.26;101088.94;5070475;28;20341;-72
2021/08/04 06:47:49;;;;;;;4.63;4.23;;;;;;;19.35;57.70;101090.22;5069843;28;20173;-71
2021/08/04 06:50:14;;;;;;;5.33;3.80;;;;;;;19.86;56.86;101090.91;5058313;28;20598;-71
2021/08/04 06:52:40;;;;;;;7.53;3.83;;;;;;;19.72;56.86;101085.03;5082066;28;20187;-73
2021/08/04 06:55:05;;;;;;;3.80;3.50;;;;;;;19.45;57.12;101087.41;5059752;28;20559;-72
2021/08/04 06:57:31;;;;;;;4.20;3.60;;;;;;;19.67;56.55;101088.66;5057915;28;20177;-73
2021/08/04 06:59:56;;;;;;;4.20;3.80;;;;;;;19.78;55.97;101085.78;5060463;28;20224;-73
2021/08/04 07:02:21;;;;;;;5.60;3.90;;;;;;;19.77;56.79;101085.78;5088953;28;20551;-71
2021/08/04 07:04:47;;;;;;;3.80;3.50;;;;;;;20.01;55.35;101087.00;5062301;28;20198;-71
2021/08/04 07:07:15;;;;;;;4.17;3.70;;;;;;;20.22;55.02;101085.63;5059311;28;20180;-75
2021/08/04 07:09:41;;;;;;;5.23;3.90;;;;;;;20.11;55.35;101090.31;5071058;28;20213;-74
2021/08/04 07:12:08;;;;;;;4.40;3.80;;;;;;;20.28;54.61;101092.53;5067901;28;20511;-71
2021/08/04 07:14:33;;;;;;;5.33;3.70;;;;;;;19.81;56.12;101096.31;5056642;28;20166;-71
2021/08/04 07:16:58;;;;;;;4.33;3.30;;;;;;;20.10;55.58;101097.38;5067349;28;20499;-72
2021/08/04 07:19:24;;;;;;;6.53;3.77;;;;;;;19.59;56.55;101097.66;5080115;28;20185;-75
2021/08/04 07:21:49;;;;;;;4.00;3.60;;;;;;;19.85;55.84;101100.63;5075375;28;20228;-72
2021/08/04 07:24:15;;;;;;;4.23;3.13;;;;;;;20.08;55.29;101093.03;5077171;28;20259;-74
2021/08/04 07:26:42;;;;;;;3.87;3.43;;;;;;;19.94;55.54;101099.50;5076549;28;20328;-74
2021/08/04 07:29:07;;;;;;;4.20;3.80;;;;;;;20.52;54.16;101101.63;5070444;28;20447;-75
2021/08/04 07:31:33;;;;;;;4.30;3.80;;;;;;;20.31;53.71;101103.03;5076834;28;20525;-75
2021/08/04 07:33:59;;;;;;;4.17;3.63;;;;;;;19.83;54.47;101105.06;5076207;28;20172;-74
2021/08/04 07:36:24;;;;;;;5.43;3.63;;;;;;;20.28;54.18;101104.03;5077609;28;20423;-74
2021/08/04 07:38:50;;;;;;;3.87;3.57;;;;;;;20.53;53.16;101109.53;5066736;28;20193;-70
2021/08/04 07:41:15;;;;;;;4.37;3.63;;;;;;;20.00;54.96;101115.25;5061444;28;20197;-71
2021/08/04 07:43:40;;;;;;;5.90;3.97;;;;;;;20.16;54.28;101112.22;5075719;28;20500;-70
2021/08/04 07:46:06;;;;;;;6.47;3.63;;;;;;;19.92;55.01;101108.44;5071961;28;20205;-71
2021/08/04 07:48:33;;;;;;;5.03;3.77;;;;;;;20.28;53.50;101117.25;5060791;28;20558;-71
2021/08/04 07:51:00;;;;;;;5.93;3.70;;;;;;;19.81;54.93;101120.13;5073601;28;20493;-71
2021/08/04 07:53:26;;;;;;;5.00;4.10;;;;;;;19.83;55.11;101107.72;5075456;28;20432;-71
2021/08/04 07:55:51;;;;;;;5.27;3.77;;;;;;;20.17;54.09;101109.56;5062152;28;20440;-72
2021/08/04 07:58:16;;;;;;;4.50;3.53;;;;;;;20.21;53.51;101112.16;5068632;28;20191;-69
2021/08/04 08:00:42;;;;;;;4.00;3.60;;;;;;;18.62;57.82;101126.88;5068666;28;20177;-72
2021/08/04 08:03:07;;;;;;;5.30;3.80;;;;;;;19.33;55.95;101117.59;5080618;28;20181;-71
2021/08/04 08:05:32;;;;;;;3.90;3.60;;;;;;;19.01;56.83;101117.34;5079156;28;20216;-71
2021/08/04 08:08:03;;;;;;;4.07;3.67;;;;;;;19.26;56.43;101118.63;5060824;28;20216;-72
2021/08/04 08:10:29;;;;;;;3.93;3.53;;;;;;;18.44;58.46;101110.44;5060746;28;20465;-71
2021/08/04 08:12:54;;;;;;;4.13;3.73;;;;;;;18.66;58.81;101110.91;5060419;28;20494;-71
2021/08/04 08:15:19;;;;;;;4.07;3.47;;;;;;;19.03;57.67;101112.03;5060258;28;20231;-72
2021/08/04 08:17:45;;;;;;;5.57;3.90;;;;;;;18.85;58.28;101114.09;5060429;28;20193;-71
2021/08/04 08:20:11;;;;;;;3.93;3.30;;;;;;;18.52;59.34;101111.19;5061878;28;20347;-73
2021/08/04 08:22:36;;;;;;;6.30;4.00;;;;;;;19.00;58.40;101104.19;5060216;28;20169;-73
2021/08/04 08:25:02;;;;;;;6.13;3.47;;;;;;;19.72;56.74;101103.56;5069875;28;20242;-73
2021/08/04 08:27:27;;;;;;;3.50;3.20;;;;;;;19.45;57.25;101112.03;5070979;28;20235;-72
2021/08/04 08:29:52;;;;;;;6.63;3.10;;;;;;;19.92;56.59;101105.78;5068608;28;20227;-72
2021/08/04 08:32:18;;;;;;;6.43;3.97;;;;;;;20.64;54.87;101105.75;5060181;28;20193;-73
2021/08/04 08:34:43;;;;;;;3.90;3.30;;;;;;;18.90;59.66;101108.75;5072096;28;20189;-70
2021/08/04 08:37:09;;;;;;;5.10;3.50;;;;;;;18.76;61.13;101108.13;5071474;28;20494;-70
2021/08/04 08:39:34;;;;;;;3.60;3.30;;;;;;;19.52;58.72;101108.38;5060366;28;20196;-72
2021/08/04 08:42:00;;;;;;;4.97;3.60;;;;;;;18.77;60.94;101108.09;5062581;28;20213;-71
2021/08/04 08:44:26;;;;;;;3.80;3.50;;;;;;;19.59;58.46;101113.53;5069256;28;20189;-72
2021/08/04 08:46:52;;;;;;;4.80;3.67;;;;;;;18.87;60.49;101106.13;5070314;28;20537;-72
2021/08/04 08:49:28;;;;;;;3.70;3.40;;;;;;;19.75;58.13;101108.78;5066583;28;20540;-72
2021/08/04 08:51:55;;;;;;;6.37;3.40;;;;;;;19.42;58.89;101105.97;5068914;28;20188;-72
2021/08/04 08:54:21;;;;;;;3.83;3.43;;;;;;;20.14;57.12;101104.34;5069878;28;20853;-71
2021/08/04 08:56:47;;;;;;;7.03;3.67;;;;;;;20.66;55.71;101102.16;5071966;28;20458;-71
2021/08/04 08:59:15;;;;;;;3.60;3.30;;;;;;;20.07;56.50;101109.84;5077472;28;20458;-70
2021/08/04 09:01:41;;;;;;;3.60;3.30;;;;;;;19.35;58.53;101115.81;5075964;28;20518;-70
2021/08/04 09:04:10;;;;;;;3.80;3.50;;;;;;;18.75;60.28;101119.56;5059187;28;20514;-71
2021/08/04 09:06:44;;;;;;;3.60;3.30;;;;;;;19.77;57.19;101109.59;5058964;28;20785;-70
2021/08/04 09:09:18;;;;;;;3.90;3.50;;;;;;;20.04;56.74;101113.44;5059076;28;20419;-71
2021/08/04 09:11:44;;;;;;;6.07;3.33;;;;;;;21.67;52.28;101110.81;5060102;28;20490;-71
2021/08/04 09:14:09;;;;;;;4.70;3.17;;;;;;;19.68;56.11;101122.13;5059062;28;20447;-71
2021/08/04 09:16:36;;;;;;;5.20;3.77;;;;;;;20.19;55.36;101120.13;5071147;28;20428;-71
2021/08/04 09:19:01;;;;;;;4.30;3.30;;;;;;;19.46;58.00;101127.00;5080811;28;20180;-71
2021/08/04 09:21:27;;;;;;;8.03;3.50;;;;;;;19.37;58.55;101115.78;5061023;28;20531;-71
2021/08/04 09:23:55;;;;;;;3.53;3.23;;;;;;;20.27;55.81;101120.81;5069724;28;20237;-71
2021/08/04 09:26:27;;;;;;;5.50;3.50;;;;;;;19.73;57.00;101124.69;5065273;28;20201;-72
2021/08/04 09:29:00;;;;;;;3.70;3.40;;;;;;;19.06;59.51;101117.25;5059905;28;20509;-72
2021/08/04 09:31:41;;;;;;;3.60;3.30;;;;;;;20.03;57.13;101115.19;5070572;28;20522;-73
2021/08/04 09:34:36;;;;;;;3.67;3.17;;;;;;;20.31;55.78;101110.97;5075871;28;20446;-71
2021/08/04 09:37:22;;;;;;;5.00;3.60;;;;;;;20.06;56.99;101111.59;5073200;28;20432;-72
2021/08/04 09:39:53;;;;;;;3.83;3.40;;;;;;;19.98;57.09;101110.91;5058435;28;20444;-71
2021/08/04 09:42:18;;;;;;;3.80;3.50;;;;;;;19.89;56.63;101109.38;5058704;28;20832;-72
2021/08/04 09:44:54;;;;;;;6.57;3.60;;;;;;;19.85;57.87;101107.69;5067237;28;20486;-72
2021/08/04 09:47:19;;;;;;;5.93;5.33;;;;;;;20.91;55.01;101098.00;5061982;28;20196;-72
2021/08/04 09:49:54;;;;;;;5.33;3.60;;;;;;;20.19;55.05;101107.75;5066791;28;20549;-72
2021/08/04 09:52:20;;;;;;;3.60;3.30;;;;;;;19.24;57.80;101112.50;5088743;28;20192;-71
2021/08/04 09:54:45;;;;;;;3.97;3.60;;;;;;;20.30;54.78;101102.19;5078171;28;20466;-73
2021/08/04 09:57:11;;;;;;;8.30;3.83;;;;;;;19.78;56.46;101106.94;5060524;28;20222;-74
2021/08/04 09:59:37;;;;;;;3.90;3.43;;;;;;;19.49;57.84;101113.72;5058073;28;20178;-75
2021/08/04 10:02:04;;;;;;;4.13;3.60;;;;;;;19.92;56.84;101108.44;5068223;28;20431;-75
2021/08/04 10:04:31;;;;;;;5.17;3.53;;;;;;;19.98;56.36;101110.91;5057885;28;20527;-72
2021/08/04 10:07:12;;;;;;;4.40;3.30;;;;;;;20.17;55.17;101101.63;5057814;28;20462;-71
2021/08/04 10:09:38;;;;;;;6.23;3.70;;;;;;;20.15;55.32;101105.22;5058257;28;20424;-72
2021/08/04 10:12:04;;;;;;;4.23;3.83;;;;;;;19.90;56.42;101103.16;5074628;28;20526;-72
2021/08/04 10:14:30;;;;;;;4.30;3.60;;;;;;;19.85;56.21;101107.69;5066153;28;20260;-72
2021/08/04 10:16:55;;;;;;;3.77;3.40;;;;;;;20.12;54.98;101103.53;5069685;28;20760;-73
2021/08/04 10:19:22;;;;;;;4.23;3.83;;;;;;;20.25;55.23;101100.56;5072202;28;20539;-74
2021/08/04 10:21:50;;;;;;;5.03;3.90;;;;;;;20.67;54.54;101101.25;5070620;28;20180;-73
2021/08/04 10:24:15;;;;;;;4.00;3.60;;;;;;;21.66;51.89;101092.28;5066045;28;20471;-75
2021/08/04 10:26:41;;;;;;;4.33;3.93;;;;;;;21.69;50.99;101094.88;5058632;28;20478;-76
2021/08/04 10:29:08;;;;;;;5.90;4.00;;;;;;;21.82;51.30;101097.97;5058823;28;20170;-73
2021/08/04 10:31:34;;;;;;;4.43;3.60;;;;;;;21.64;50.91;101099.44;5068737;28;20543;-72
2021/08/04 10:34:01;;;;;;;4.57;3.80;;;;;;;20.88;53.08;101096.31;5057739;28;20864;-72
2021/08/04 10:36:37;;;;;;;4.30;3.70;;;;;;;21.84;51.88;101101.47;5058055;28;20810;-77
2021/08/04 10:39:08;;;;;;;4.10;3.80;;;;;;;22.07;50.19;101098.06;5057695;28;20416;-73
2021/08/04 10:41:34;;;;;;;4.27;3.87;;;;;;;20.11;54.92;101107.06;5064373;28;20525;-74
2021/08/04 10:44:04;;;;;;;4.60;3.67;;;;;;;20.66;53.61;101095.97;5077428;28;20485;-75
2021/08/04 10:46:32;;;;;;;7.20;4.10;;;;;;;20.27;53.60;101106.69;5060713;28;20574;-76
2021/08/04 10:49:04;;;;;;;4.67;3.80;;;;;;;20.50;53.33;101098.16;5058409;28;20780;-74
2021/08/04 10:51:41;;;;;;;4.80;4.30;;;;;;;21.85;50.30;101090.81;5066184;28;20441;-75
2021/08/04 10:54:17;;;;;;;6.60;3.70;;;;;;;21.68;50.96;101082.50;5084058;28;20836;-74
2021/08/04 10:56:42;;;;;;;4.33;3.97;;;;;;;22.85;48.74;101075.94;5077879;28;20411;-75
2021/08/04 10:59:08;;;;;;;4.87;3.57;;;;;;;22.15;49.36;101084.53;5073976;28;20696;-75
2021/08/04 11:01:33;;;;;;;3.97;3.60;;;;;;;23.02;47.12;101077.09;5058961;28;20450;-74
2021/08/04 11:03:59;;;;;;;4.43;4.00;;;;;;;22.78;47.40;101066.44;5057383;28;20185;-75
2021/08/04 11:06:24;;;;;;;4.93;3.80;;;;;;;23.15;46.96;101077.53;5057894;28;20213;-75
2021/08/04 11:09:12;;;;;;;4.60;4.20;;;;;;;23.82;45.82;101074.03;5058822;28;20176;-75
2021/08/04 11:11:57;;;;;;;4.93;4.37;;;;;;;24.07;44.75;101072.19;5058179;28;20169;-75
2021/08/04 11:14:48;;;;;;;7.30;4.80;;;;;;;24.18;44.91;101068.16;5071295;28;20439;-74
2021/08/04 11:17:33;;;;;;;7.33;6.70;;;;;;;24.21;44.34;101060.03;5061659;28;20502;-74
2021/08/04 11:20:02;;;;;;;4.50;4.10;;;;;;;23.95;44.84;101065.56;5061058;28;20739;-73
2021/08/04 11:22:39;;;;;;;4.63;4.23;;;;;;;23.59;45.19;101066.13;5075036;28;20486;-74
2021/08/04 11:25:13;;;;;;;6.67;4.80;;;;;;;24.49;43.70;101064.19;5069316;28;20524;-74